Buoy 43528

sailwx.info

Track history (hours):
 
Tides and Currents Weather Stations Pressure Air Temp Water Temp Dewpoint Dewpoint Depression Visibility Wind Speed Wind Dir Waves Ship Positions

Drifting buoy 43528

Last reported at 2015-Aug-04 09:00 UTC. Time now 2015-Aug-04 13:55 UTC.
Position N 15°38' E 171°41'.

Water temperature 29.3 ° C

Date/timePositionNaut miles runAvg speedWind from/ knotsBaromVisibWave heightAir tempDewpointWater temp
2015-Aug-04 09:00N 15°38' E 171°41'1 0.4 29.3
2015-Aug-04 06:00N 15°40' E 171°41'1 0.1 29.4
2015-Aug-04 01:00N 15°40' E 171°42'2 0.5 29.5
2015-Aug-03 21:00N 15°39' E 171°44'1 0.2 29.1
2015-Aug-03 17:00N 15°40' E 171°43'1 1.1 29.1
2015-Aug-03 16:00N 15°39' E 171°43'0 0.1 29.1
2015-Aug-03 14:00N 15°39' E 171°43'0 0.0 29.1
2015-Aug-03 13:00N 15°39' E 171°43'2 1.1 29.1
2015-Aug-03 11:00N 15°37' E 171°44'2 1.0 29.1
2015-Aug-03 09:00N 15°36' E 171°46'2 1.7 29.1
2015-Aug-03 08:00N 15°36' E 171°48'1 0.2 29.1
2015-Aug-03 04:00N 15°36' E 171°49'0 0.2 29.2
2015-Aug-03 03:00N 15°36' E 171°49'1 1.2 29.2
2015-Aug-03 02:00N 15°36' E 171°50'3 0.9 29.2
2015-Aug-02 23:00N 15°36' E 171°53'2 0.9 29.1
2015-Aug-02 21:00N 15°37' E 171°55'2 2.3 29.0
2015-Aug-02 20:00N 15°38' E 171°57'0 0.0 29.0
2015-Aug-02 19:00N 15°38' E 171°57'2 0.8 29.0
2015-Aug-02 17:00N 15°39' E 171°58'2 0.7 29.0
2015-Aug-02 14:00N 15°39' E 172°00'4 0.9 29.1
2015-Aug-02 10:00N 15°41' E 172°04'1 1.1 29.1
2015-Aug-02 09:00N 15°42' E 172°05'2 0.6 29.2
2015-Aug-02 06:00N 15°44' E 172°06'1 0.6 29.2
2015-Aug-02 05:00N 15°44' E 172°06'1 0.6 29.3
2015-Aug-02 03:00N 15°45' E 172°07'0 0.0 29.3
2015-Aug-02 02:00N 15°45' E 172°07'1 0.2 29.3
2015-Aug-01 21:00N 15°45' E 172°08'0 0.3 28.9
2015-Aug-01 20:00N 15°45' E 172°07'0 0.5 28.9
2015-Aug-01 19:00N 15°44' E 172°08'2 1.0 28.9
2015-Aug-01 17:00N 15°43' E 172°09'7 0.7 28.9
2015-Aug-01 06:00N 15°38' E 172°15'2 1.8 29.1
2015-Aug-01 05:00N 15°37' E 172°17'15 0.7 29.1
2015-Jul-31 08:00N 15°38' E 172°32'0 0.1 28.9
2015-Jul-31 04:00N 15°38' E 172°32'16 0.9 29.0
2015-Jul-30 09:00N 15°28' E 172°45'2 1.9 28.7
2015-Jul-30 08:00N 15°27' E 172°47'6 1.1 28.7
2015-Jul-30 02:00N 15°26' E 172°54'9 1.0 28.7
2015-Jul-29 17:00N 15°30' E 173°02'0 0.2 28.5
2015-Jul-29 16:00N 15°30' E 173°02'2 0.3 28.5
2015-Jul-29 08:00N 15°32' E 173°04'1 0.6 28.6
2015-Jul-29 06:00N 15°32' E 173°05'4 0.9 28.7
2015-Jul-29 02:00N 15°30' E 173°08'0 0.0 28.8
2015-Jul-29 01:00N 15°30' E 173°08'2 0.8 28.7
2015-Jul-28 23:00N 15°30' E 173°10'4 0.7 28.6
2015-Jul-28 18:00N 15°28' E 173°13'2 0.7 28.5
2015-Jul-28 15:00N 15°28' E 173°15'1 1.1 28.5
2015-Jul-28 14:00N 15°27' E 173°16'0 0.0 28.5
2015-Jul-28 13:00N 15°27' E 173°16'5 1.1 28.5
2015-Jul-28 09:00N 15°28' E 173°21'0 0.0 28.5
2015-Jul-28 08:00N 15°28' E 173°21'5 1.0 28.5
2015-Jul-28 03:00N 15°29' E 173°26'1 1.1 28.6
2015-Jul-28 02:00N 15°30' E 173°27'4 0.8 28.6
2015-Jul-27 21:00N 15°32' E 173°30'0 0.0 28.6
2015-Jul-27 20:00N 15°32' E 173°30'3 0.6 28.5
2015-Jul-27 15:00N 15°33' E 173°33'0 0.0 28.6
2015-Jul-27 14:00N 15°33' E 173°33'4 0.4 28.6
2015-Jul-27 04:00N 15°33' E 173°38'4 0.8 28.7
2015-Jul-26 23:00N 15°34' E 173°42'0 0.2 28.8
2015-Jul-26 21:00N 15°34' E 173°42'0 0.0 28.7
2015-Jul-26 20:00N 15°34' E 173°42'2 1.0 28.7
2015-Jul-26 18:00N 15°34' E 173°44'2 1.5 28.7
2015-Jul-26 17:00N 15°34' E 173°46'0 0.1 28.7
2015-Jul-26 16:00N 15°34' E 173°46'1 0.7 28.8
2015-Jul-26 14:00N 15°34' E 173°47'5 1.1 28.8
2015-Jul-26 09:00N 15°35' E 173°52'4 0.9 28.9
2015-Jul-26 05:00N 15°36' E 173°56'0 0.0 29.0
2015-Jul-26 04:00N 15°36' E 173°56'1 0.5 29.0
2015-Jul-26 03:00N 15°36' E 173°57'2 1.6 29.0
2015-Jul-26 02:00N 15°36' E 173°58'0 0.0 29.0
2015-Jul-26 01:00N 15°36' E 173°58'4 0.7 28.9
2015-Jul-25 20:00N 15°37' E 174°02'1 0.6 28.8
2015-Jul-25 19:00N 15°37' E 174°02'1 0.6 28.8
2015-Jul-25 17:00N 15°38' E 174°03'4 0.5 28.9
2015-Jul-25 09:00N 15°38' E 174°07'   29.1
Track history (hours):
 
Tides and Currents Weather Stations Pressure Air Temp Water Temp Dewpoint Dewpoint Depression Visibility Wind Speed Wind Dir Waves Ship Positions

Drifting buoy 43528

Last reported at 2015-Aug-04 09:00 UTC. Time now 2015-Aug-04 13:55 UTC.
Position N 15°38' E 171°41'.

Water temperature 29.3 ° C

Date/timePositionNaut miles runAvg speedWind from/ knotsBaromVisibWave heightAir tempDewpointWater temp
2015-Aug-04 09:00N 15°38' E 171°41'1 0.4 29.3
2015-Aug-04 06:00N 15°40' E 171°41'1 0.1 29.4
2015-Aug-04 01:00N 15°40' E 171°42'2 0.5 29.5
2015-Aug-03 21:00N 15°39' E 171°44'1 0.2 29.1
2015-Aug-03 17:00N 15°40' E 171°43'1 1.1 29.1
2015-Aug-03 16:00N 15°39' E 171°43'0 0.1 29.1
2015-Aug-03 14:00N 15°39' E 171°43'0 0.0 29.1
2015-Aug-03 13:00N 15°39' E 171°43'2 1.1 29.1
2015-Aug-03 11:00N 15°37' E 171°44'2 1.0 29.1
2015-Aug-03 09:00N 15°36' E 171°46'2 1.7 29.1
2015-Aug-03 08:00N 15°36' E 171°48'1 0.2 29.1
2015-Aug-03 04:00N 15°36' E 171°49'0 0.2 29.2
2015-Aug-03 03:00N 15°36' E 171°49'1 1.2 29.2
2015-Aug-03 02:00N 15°36' E 171°50'3 0.9 29.2
2015-Aug-02 23:00N 15°36' E 171°53'2 0.9 29.1
2015-Aug-02 21:00N 15°37' E 171°55'2 2.3 29.0
2015-Aug-02 20:00N 15°38' E 171°57'0 0.0 29.0
2015-Aug-02 19:00N 15°38' E 171°57'2 0.8 29.0
2015-Aug-02 17:00N 15°39' E 171°58'2 0.7 29.0
2015-Aug-02 14:00N 15°39' E 172°00'4 0.9 29.1
2015-Aug-02 10:00N 15°41' E 172°04'1 1.1 29.1
2015-Aug-02 09:00N 15°42' E 172°05'2 0.6 29.2
2015-Aug-02 06:00N 15°44' E 172°06'1 0.6 29.2
2015-Aug-02 05:00N 15°44' E 172°06'1 0.6 29.3
2015-Aug-02 03:00N 15°45' E 172°07'0 0.0 29.3
2015-Aug-02 02:00N 15°45' E 172°07'1 0.2 29.3
2015-Aug-01 21:00N 15°45' E 172°08'0 0.3 28.9
2015-Aug-01 20:00N 15°45' E 172°07'0 0.5 28.9
2015-Aug-01 19:00N 15°44' E 172°08'2 1.0 28.9
2015-Aug-01 17:00N 15°43' E 172°09'7 0.7 28.9
2015-Aug-01 06:00N 15°38' E 172°15'2 1.8 29.1
2015-Aug-01 05:00N 15°37' E 172°17'15 0.7 29.1
2015-Jul-31 08:00N 15°38' E 172°32'0 0.1 28.9
2015-Jul-31 04:00N 15°38' E 172°32'16 0.9 29.0
2015-Jul-30 09:00N 15°28' E 172°45'2 1.9 28.7
2015-Jul-30 08:00N 15°27' E 172°47'6 1.1 28.7
2015-Jul-30 02:00N 15°26' E 172°54'9 1.0 28.7
2015-Jul-29 17:00N 15°30' E 173°02'0 0.2 28.5
2015-Jul-29 16:00N 15°30' E 173°02'2 0.3 28.5
2015-Jul-29 08:00N 15°32' E 173°04'1 0.6 28.6
2015-Jul-29 06:00N 15°32' E 173°05'4 0.9 28.7
2015-Jul-29 02:00N 15°30' E 173°08'0 0.0 28.8
2015-Jul-29 01:00N 15°30' E 173°08'2 0.8 28.7
2015-Jul-28 23:00N 15°30' E 173°10'4 0.7 28.6
2015-Jul-28 18:00N 15°28' E 173°13'2 0.7 28.5
2015-Jul-28 15:00N 15°28' E 173°15'1 1.1 28.5
2015-Jul-28 14:00N 15°27' E 173°16'0 0.0 28.5
2015-Jul-28 13:00N 15°27' E 173°16'5 1.1 28.5
2015-Jul-28 09:00N 15°28' E 173°21'0 0.0 28.5
2015-Jul-28 08:00N 15°28' E 173°21'5 1.0 28.5
2015-Jul-28 03:00N 15°29' E 173°26'1 1.1 28.6
2015-Jul-28 02:00N 15°30' E 173°27'4 0.8 28.6
2015-Jul-27 21:00N 15°32' E 173°30'0 0.0 28.6
2015-Jul-27 20:00N 15°32' E 173°30'3 0.6 28.5
2015-Jul-27 15:00N 15°33' E 173°33'0 0.0 28.6
2015-Jul-27 14:00N 15°33' E 173°33'4 0.4 28.6
2015-Jul-27 04:00N 15°33' E 173°38'4 0.8 28.7
2015-Jul-26 23:00N 15°34' E 173°42'0 0.2 28.8
2015-Jul-26 21:00N 15°34' E 173°42'0 0.0 28.7
2015-Jul-26 20:00N 15°34' E 173°42'2 1.0 28.7
2015-Jul-26 18:00N 15°34' E 173°44'2 1.5 28.7
2015-Jul-26 17:00N 15°34' E 173°46'0 0.1 28.7
2015-Jul-26 16:00N 15°34' E 173°46'1 0.7 28.8
2015-Jul-26 14:00N 15°34' E 173°47'5 1.1 28.8
2015-Jul-26 09:00N 15°35' E 173°52'4 0.9 28.9
2015-Jul-26 05:00N 15°36' E 173°56'0 0.0 29.0
2015-Jul-26 04:00N 15°36' E 173°56'1 0.5 29.0
2015-Jul-26 03:00N 15°36' E 173°57'2 1.6 29.0
2015-Jul-26 02:00N 15°36' E 173°58'0 0.0 29.0
2015-Jul-26 01:00N 15°36' E 173°58'4 0.7 28.9
2015-Jul-25 20:00N 15°37' E 174°02'1 0.6 28.8
2015-Jul-25 19:00N 15°37' E 174°02'1 0.6 28.8
2015-Jul-25 17:00N 15°38' E 174°03'4 0.5 28.9
2015-Jul-25 09:00N 15°38' E 174°07'   29.1

Dump ship's entire track history